createdAt,value
2018-06-10T00:00:53.969Z,95.20
2018-06-10T00:04:54.544Z,95.30
2018-06-10T00:08:48.816Z,95.80
2018-06-10T00:12:43.286Z,96.20
2018-06-10T00:16:37.683Z,95.50
2018-06-10T00:20:32.277Z,95.90
2018-06-10T00:24:27.044Z,95.20
2018-06-10T00:28:26.490Z,95.70
2018-06-10T00:32:20.697Z,95.70
2018-06-10T00:36:14.761Z,95.40
2018-06-10T00:40:08.766Z,95.10
2018-06-10T00:44:03.464Z,94.80
2018-06-10T00:47:57.457Z,94.70
2018-06-10T00:51:51.667Z,95.00
2018-06-10T00:55:45.839Z,95.30
2018-06-10T00:59:39.850Z,95.00
2018-06-10T01:03:33.900Z,95.60
2018-06-10T01:07:28.103Z,97.30
2018-06-10T01:11:22.180Z,97.30
2018-06-10T01:15:16.204Z,97.70
2018-06-10T01:19:10.369Z,99.90
2018-06-10T01:23:03.842Z,99.90
2018-06-10T01:26:57.783Z,99.90
2018-06-10T01:30:51.971Z,99.90
2018-06-10T01:34:46.186Z,99.90
2018-06-10T01:38:40.395Z,99.90
2018-06-10T01:42:35.040Z,99.90
2018-06-10T01:46:32.986Z,99.90
2018-06-10T01:50:35.250Z,99.90
2018-06-10T01:54:28.873Z,99.90
2018-06-10T01:58:22.917Z,99.90
2018-06-10T02:02:16.975Z,99.90
2018-06-10T02:06:11.538Z,99.90
2018-06-10T02:10:05.657Z,99.90
2018-06-10T02:13:59.881Z,99.90
2018-06-10T02:17:53.970Z,99.90
2018-06-10T02:21:47.692Z,99.90
2018-06-10T02:25:41.702Z,99.90
2018-06-10T02:29:35.791Z,99.90
2018-06-10T02:33:30.591Z,99.90
2018-06-10T02:37:24.664Z,99.90
2018-06-10T02:41:18.679Z,99.90
2018-06-10T02:45:12.672Z,99.90
2018-06-10T02:49:07.459Z,99.90
2018-06-10T02:53:01.712Z,99.90
2018-06-10T02:56:55.698Z,99.90
2018-06-10T03:00:49.693Z,99.90
2018-06-10T03:04:43.811Z,99.90
2018-06-10T03:08:41.436Z,99.90
2018-06-10T03:12:37.684Z,99.90
2018-06-10T03:16:31.708Z,99.90
2018-06-10T03:20:25.215Z,99.90
2018-06-10T03:24:19.298Z,99.90
2018-06-10T03:28:14.172Z,99.90
2018-06-10T03:32:08.304Z,99.90
2018-06-10T03:36:02.488Z,99.90
2018-06-10T03:39:56.831Z,99.90
2018-06-10T03:43:50.785Z,99.90
2018-06-10T03:47:44.846Z,99.90
2018-06-10T03:51:38.991Z,99.90
2018-06-10T03:59:51.144Z,99.90
2018-06-10T04:03:46.624Z,99.90
2018-06-10T04:07:40.838Z,99.90
2018-06-10T04:11:35.009Z,99.90
2018-06-10T04:15:28.956Z,99.90
2018-06-10T04:19:22.947Z,99.90
2018-06-10T04:23:16.452Z,99.90
2018-06-10T04:27:11.167Z,99.90
2018-06-10T04:31:05.681Z,99.90
2018-06-10T04:34:59.647Z,99.90
2018-06-10T04:38:53.804Z,99.90
2018-06-10T04:42:48.374Z,99.90
2018-06-10T04:46:42.558Z,99.90
2018-06-10T04:50:37.710Z,99.90
2018-06-10T04:54:31.674Z,99.90
2018-06-10T04:58:29.666Z,99.90
2018-06-10T05:02:26.006Z,99.90
2018-06-10T05:06:20.068Z,99.90
2018-06-10T05:10:14.243Z,99.90
2018-06-10T05:14:08.660Z,99.90
2018-06-10T05:18:02.763Z,99.90
2018-06-10T05:21:56.318Z,99.90
2018-06-10T05:25:50.510Z,99.90
2018-06-10T05:29:44.551Z,99.90
2018-06-10T05:33:38.879Z,99.90
2018-06-10T05:37:33.034Z,99.90
2018-06-10T05:41:28.078Z,99.90
2018-06-10T05:45:22.179Z,99.90
2018-06-10T05:49:16.242Z,99.90
2018-06-10T05:53:10.313Z,99.90
2018-06-10T05:57:04.484Z,99.90
2018-06-10T06:00:58.757Z,99.90
2018-06-10T06:04:53.159Z,99.90
2018-06-10T06:08:48.249Z,99.90
2018-06-10T06:16:36.953Z,99.90
2018-06-10T06:20:30.838Z,99.90
2018-06-10T06:24:24.910Z,98.40
2018-06-10T06:28:18.959Z,97.30
2018-06-10T06:32:13.956Z,96.50
2018-06-10T06:36:08.806Z,95.90
2018-06-10T06:40:03.303Z,95.00
2018-06-10T06:44:01.140Z,95.00
2018-06-10T06:47:55.527Z,95.70
2018-06-10T06:55:46.307Z,94.80
2018-06-10T06:59:41.321Z,94.00
2018-06-10T07:03:35.604Z,93.60
2018-06-10T07:07:30.011Z,93.30
2018-06-10T07:11:24.471Z,92.10
2018-06-10T07:15:19.348Z,91.60
2018-06-10T07:19:13.657Z,92.00
2018-06-10T07:23:08.109Z,92.50
2018-06-10T07:27:02.710Z,93.00
2018-06-10T07:30:56.938Z,94.30
2018-06-10T07:34:51.755Z,96.00
2018-06-10T07:38:47.268Z,96.40
2018-06-10T07:42:41.656Z,96.70
2018-06-10T07:46:36.339Z,96.90
2018-06-10T07:50:31.047Z,96.60
2018-06-10T07:54:27.431Z,96.50
2018-06-10T07:58:22.786Z,97.40
2018-06-10T08:02:19.316Z,97.00
2018-06-10T08:06:14.768Z,96.80
2018-06-10T08:10:11.381Z,96.50
2018-06-10T08:14:05.667Z,96.50
2018-06-10T08:17:59.931Z,95.00
2018-06-10T08:21:53.983Z,94.30
2018-06-10T08:25:48.465Z,93.90
2018-06-10T08:29:42.720Z,93.60
2018-06-10T08:33:36.232Z,92.20
2018-06-10T08:37:29.543Z,91.50
2018-06-10T08:41:23.562Z,93.10
2018-06-10T08:45:17.787Z,92.60
2018-06-10T08:49:11.790Z,92.20
2018-06-10T08:53:05.909Z,92.70
2018-06-10T08:57:00.497Z,91.40
2018-06-10T09:00:55.709Z,91.00
2018-06-10T09:04:50.031Z,90.70
2018-06-10T09:08:44.967Z,89.30
2018-06-10T09:12:39.094Z,87.60
2018-06-10T09:16:33.943Z,88.40
2018-06-10T09:20:27.439Z,87.90
2018-06-10T09:24:21.682Z,87.60
2018-06-10T09:28:15.922Z,86.90
2018-06-10T09:36:03.865Z,84.70
2018-06-10T09:39:57.834Z,82.40
2018-06-10T09:43:53.009Z,81.20
2018-06-10T09:47:47.061Z,84.10
2018-06-10T09:51:41.284Z,81.50
2018-06-10T10:03:23.196Z,78.50
2018-06-10T10:07:17.328Z,80.40
2018-06-10T10:11:11.478Z,82.00
2018-06-10T10:15:05.552Z,81.60
2018-06-10T10:18:59.560Z,80.90
2018-06-10T10:26:46.626Z,80.90
2018-06-10T10:30:40.680Z,82.80
2018-06-10T10:34:35.090Z,81.30
2018-06-10T10:38:29.085Z,79.50
2018-06-10T10:42:23.135Z,80.40
2018-06-10T10:46:17.304Z,78.10
2018-06-10T10:50:11.426Z,76.30
2018-06-10T10:54:05.573Z,76.60
2018-06-10T10:58:00.730Z,76.50
2018-06-10T11:01:55.263Z,79.60
2018-06-10T11:05:49.376Z,78.90
2018-06-10T11:09:44.647Z,74.40
2018-06-10T11:13:39.377Z,73.60
2018-06-10T11:17:34.534Z,71.60
2018-06-10T11:21:28.009Z,72.40
2018-06-10T11:25:22.150Z,74.50
2018-06-10T11:29:16.335Z,73.30
2018-06-10T11:33:10.488Z,72.50
2018-06-10T11:37:05.847Z,69.60
2018-06-10T11:41:03.815Z,68.80
2018-06-10T11:44:57.997Z,68.50
2018-06-10T11:52:48.092Z,75.40
2018-06-10T11:56:42.814Z,73.30
2018-06-10T12:00:37.003Z,71.20
2018-06-10T12:04:30.984Z,69.60
2018-06-10T12:08:25.012Z,72.50
2018-06-10T12:12:19.087Z,74.00
2018-06-10T12:16:13.129Z,75.10
2018-06-10T12:20:08.903Z,75.40
2018-06-10T12:24:02.395Z,78.30
2018-06-10T12:27:56.419Z,78.00
2018-06-10T12:31:50.465Z,78.30
2018-06-10T12:35:44.435Z,76.60
2018-06-10T12:39:38.512Z,76.30
2018-06-10T12:43:34.980Z,74.20
2018-06-10T12:47:29.874Z,74.70
2018-06-10T12:51:23.931Z,75.40
2018-06-10T12:55:18.285Z,73.50
2018-06-10T12:59:12.279Z,73.30
2018-06-10T13:03:06.434Z,71.60
2018-06-10T13:07:00.564Z,75.70
2018-06-10T13:10:55.174Z,74.40
2018-06-10T13:14:49.153Z,77.80
2018-06-10T13:18:44.081Z,77.30
2018-06-10T13:22:37.938Z,73.60
2018-06-10T13:26:32.007Z,72.70
2018-06-10T13:30:26.067Z,71.40
2018-06-10T13:34:20.203Z,70.90
2018-06-10T13:38:14.650Z,72.50
2018-06-10T13:42:09.311Z,72.60
2018-06-10T13:46:03.500Z,73.80
2018-06-10T13:49:57.635Z,73.30
2018-06-10T13:53:52.530Z,73.60
2018-06-10T13:57:46.685Z,73.40
2018-06-10T14:01:40.744Z,74.00
2018-06-10T14:05:35.109Z,72.30
2018-06-10T14:09:29.443Z,70.70
2018-06-10T14:13:23.544Z,68.50
2018-06-10T14:17:17.575Z,67.00
2018-06-10T14:21:11.104Z,67.90
2018-06-10T14:25:06.372Z,71.70
2018-06-10T14:29:01.684Z,72.10
2018-06-10T14:32:55.707Z,72.00
2018-06-10T14:36:49.805Z,69.40
2018-06-10T14:40:44.353Z,70.80
2018-06-10T14:48:32.280Z,70.00
2018-06-10T14:52:26.979Z,70.80
2018-06-10T14:56:21.015Z,71.40
2018-06-10T15:00:15.017Z,69.50
2018-06-10T15:04:09.142Z,70.80
2018-06-10T15:08:03.121Z,71.00
2018-06-10T15:11:57.288Z,72.30
2018-06-10T15:15:51.388Z,71.50
2018-06-10T15:19:45.534Z,71.00
2018-06-10T15:23:38.976Z,69.50
2018-06-10T15:27:33.052Z,69.90
2018-06-10T15:31:28.120Z,66.60
2018-06-10T15:35:23.355Z,63.80
2018-06-10T15:39:18.060Z,64.90
2018-06-10T15:43:12.044Z,65.80
2018-06-10T15:47:06.069Z,66.10
2018-06-10T15:51:00.222Z,65.60
2018-06-10T15:54:54.192Z,65.60
2018-06-10T15:58:48.558Z,65.10
2018-06-10T16:02:42.758Z,65.80
2018-06-10T16:06:36.707Z,68.00
2018-06-10T16:10:31.257Z,65.10
2018-06-10T16:14:25.375Z,61.40
2018-06-10T16:18:20.100Z,63.80
2018-06-10T16:22:13.541Z,63.40
2018-06-10T16:26:07.700Z,62.10
2018-06-10T16:30:01.703Z,63.40
2018-06-10T16:33:55.779Z,62.60
2018-06-10T16:37:49.792Z,63.40
2018-06-10T16:41:44.004Z,63.80
2018-06-10T16:45:38.024Z,66.30
2018-06-10T16:49:32.192Z,65.10
2018-06-10T16:53:26.253Z,63.90
2018-06-10T16:57:20.331Z,64.70
2018-06-10T17:01:14.405Z,63.90
2018-06-10T17:05:08.577Z,65.80
2018-06-10T17:09:03.444Z,65.30
2018-06-10T17:12:58.607Z,66.90
2018-06-10T17:16:52.748Z,66.90
2018-06-10T17:20:46.965Z,67.70
2018-06-10T17:24:40.398Z,68.30
2018-06-10T17:28:34.415Z,68.40
2018-06-10T17:32:28.549Z,68.80
2018-06-10T17:36:22.936Z,68.40
2018-06-10T17:40:17.533Z,68.70
2018-06-10T17:44:11.742Z,67.80
2018-06-10T17:48:05.851Z,67.20
2018-06-10T17:51:59.884Z,67.80
2018-06-10T17:55:54.035Z,66.90
2018-06-10T17:59:48.104Z,68.60
2018-06-10T18:03:42.092Z,69.90
2018-06-10T18:07:36.114Z,69.80
2018-06-10T18:11:31.388Z,69.40
2018-06-10T18:15:25.490Z,70.20
2018-06-10T18:19:19.518Z,70.20
2018-06-10T18:23:13.102Z,70.80
2018-06-10T18:27:07.138Z,71.00
2018-06-10T18:31:01.209Z,71.90
2018-06-10T18:34:55.225Z,73.20
2018-06-10T18:38:49.264Z,74.10
2018-06-10T18:42:43.585Z,74.30
2018-06-10T18:46:37.777Z,73.80
2018-06-10T18:50:31.921Z,74.70
2018-06-10T18:54:26.064Z,74.70
2018-06-10T18:58:20.076Z,74.50
2018-06-10T19:02:14.223Z,73.60
2018-06-10T19:06:08.476Z,74.40
2018-06-10T19:10:02.632Z,75.30
2018-06-10T19:13:56.984Z,75.90
2018-06-10T19:17:49.958Z,76.70
2018-06-10T19:21:43.697Z,77.20
2018-06-10T19:25:37.784Z,77.90
2018-06-10T19:29:31.887Z,79.00
2018-06-10T19:33:25.939Z,80.30
2018-06-10T19:37:20.094Z,81.10
2018-06-10T19:41:14.437Z,82.80
2018-06-10T19:45:08.499Z,83.60
2018-06-10T19:49:02.545Z,83.80
2018-06-10T19:52:57.109Z,83.90
2018-06-10T20:00:46.259Z,85.00
2018-06-10T20:04:43.135Z,86.00
2018-06-10T20:08:37.127Z,86.30
2018-06-10T20:12:31.792Z,86.30
2018-06-10T20:16:25.894Z,87.20
2018-06-10T20:20:20.180Z,88.10
2018-06-10T20:24:15.778Z,88.80
2018-06-10T20:28:10.107Z,89.60
2018-06-10T20:32:04.218Z,90.10
2018-06-10T20:36:03.981Z,90.30
2018-06-10T20:40:03.327Z,90.40
2018-06-10T20:47:51.141Z,91.30
2018-06-10T20:51:45.216Z,91.30
2018-06-10T20:55:39.261Z,91.50
2018-06-10T20:59:33.492Z,91.90
2018-06-10T21:03:28.036Z,92.50
2018-06-10T21:07:22.070Z,92.90
2018-06-10T21:11:18.620Z,93.20
2018-06-10T21:15:13.246Z,93.40
2018-06-10T21:19:08.310Z,93.00
2018-06-10T21:23:02.815Z,92.80
2018-06-10T21:26:56.885Z,93.00
2018-06-10T21:30:52.779Z,93.30
2018-06-10T21:34:47.636Z,93.70
2018-06-10T21:38:42.195Z,93.70
2018-06-10T21:42:37.211Z,93.50
2018-06-10T21:46:31.266Z,93.70
2018-06-10T21:50:25.385Z,93.80
2018-06-10T21:54:19.399Z,94.20
2018-06-10T21:58:13.436Z,94.20
2018-06-10T22:06:01.256Z,94.70
2018-06-10T22:09:55.332Z,95.10
2018-06-10T22:13:49.489Z,95.20
2018-06-10T22:17:45.229Z,95.40
2018-06-10T22:21:39.183Z,95.50
2018-06-10T22:25:32.727Z,95.60
2018-06-10T22:29:26.803Z,95.90
2018-06-10T22:33:21.283Z,96.20
2018-06-10T22:37:15.371Z,96.40
2018-06-10T22:41:09.812Z,96.30
2018-06-10T22:45:03.988Z,96.20
2018-06-10T22:48:59.191Z,96.90
2018-06-10T22:55:02.550Z,96.70
2018-06-10T22:58:56.979Z,96.90
2018-06-10T23:02:51.574Z,97.00
2018-06-10T23:06:45.636Z,97.00
2018-06-10T23:10:39.629Z,97.00
2018-06-10T23:14:33.887Z,97.20
2018-06-10T23:18:27.896Z,97.20
2018-06-10T23:22:21.397Z,97.10
2018-06-10T23:26:15.611Z,97.20
2018-06-10T23:30:09.601Z,97.20
2018-06-10T23:34:03.649Z,97.40
2018-06-10T23:37:57.868Z,97.40
2018-06-10T23:41:51.902Z,97.20
2018-06-10T23:45:45.863Z,97.30
2018-06-10T23:49:39.990Z,97.30
2018-06-10T23:53:34.145Z,97.50
2018-06-10T23:57:28.287Z,97.80
